sensor_id;sensor_type;location;lat;lon;timestamp;P1;durP1;ratioP1;P2;durP2;ratioP2
4748;SDS011;2388;53.582;9.962;2023-04-01T00:00:21;6.23;;;4.70;;
4748;SDS011;2388;53.582;9.962;2023-04-01T00:02:47;8.00;;;4.07;;
4748;SDS011;2388;53.582;9.962;2023-04-01T00:05:12;7.73;;;4.67;;
4748;SDS011;2388;53.582;9.962;2023-04-01T00:07:38;5.30;;;4.63;;
4748;SDS011;2388;53.582;9.962;2023-04-01T00:10:06;11.57;;;4.97;;
4748;SDS011;2388;53.582;9.962;2023-04-01T00:12:33;6.40;;;4.73;;
4748;SDS011;2388;53.582;9.962;2023-04-01T00:14:59;8.17;;;4.00;;
4748;SDS011;2388;53.582;9.962;2023-04-01T00:17:25;6.27;;;4.40;;
4748;SDS011;2388;53.582;9.962;2023-04-01T00:19:51;7.80;;;5.00;;
4748;SDS011;2388;53.582;9.962;2023-04-01T00:22:16;5.57;;;4.60;;
4748;SDS011;2388;53.582;9.962;2023-04-01T00:24:42;12.40;;;4.50;;
4748;SDS011;2388;53.582;9.962;2023-04-01T00:27:07;5.90;;;4.97;;
4748;SDS011;2388;53.582;9.962;2023-04-01T00:29:33;8.70;;;5.53;;
4748;SDS011;2388;53.582;9.962;2023-04-01T00:31:59;14.57;;;4.87;;
4748;SDS011;2388;53.582;9.962;2023-04-01T00:34:25;7.00;;;5.03;;
4748;SDS011;2388;53.582;9.962;2023-04-01T00:36:51;8.50;;;5.53;;
4748;SDS011;2388;53.582;9.962;2023-04-01T00:39:17;12.87;;;5.43;;
4748;SDS011;2388;53.582;9.962;2023-04-01T00:41:44;12.60;;;5.90;;
4748;SDS011;2388;53.582;9.962;2023-04-01T00:44:17;7.27;;;4.90;;
4748;SDS011;2388;53.582;9.962;2023-04-01T00:46:47;7.90;;;5.17;;
4748;SDS011;2388;53.582;9.962;2023-04-01T00:49:13;9.23;;;5.07;;
4748;SDS011;2388;53.582;9.962;2023-04-01T00:51:42;6.10;;;5.33;;
4748;SDS011;2388;53.582;9.962;2023-04-01T00:54:09;9.50;;;5.13;;
4748;SDS011;2388;53.582;9.962;2023-04-01T00:56:37;7.60;;;4.83;;
4748;SDS011;2388;53.582;9.962;2023-04-01T00:59:07;6.33;;;4.73;;
4748;SDS011;2388;53.582;9.962;2023-04-01T01:01:36;9.10;;;5.20;;
4748;SDS011;2388;53.582;9.962;2023-04-01T01:04:02;6.80;;;5.17;;
4748;SDS011;2388;53.582;9.962;2023-04-01T01:09:10;11.63;;;5.87;;
4748;SDS011;2388;53.582;9.962;2023-04-01T01:11:42;7.03;;;4.10;;
4748;SDS011;2388;53.582;9.962;2023-04-01T01:17:02;7.30;;;5.20;;
4748;SDS011;2388;53.582;9.962;2023-04-01T01:19:52;4.13;;;3.87;;
4748;SDS011;2388;53.582;9.962;2023-04-01T01:25:40;8.10;;;5.40;;
4748;SDS011;2388;53.582;9.962;2023-04-01T01:33:58;5.83;;;3.77;;
4748;SDS011;2388;53.582;9.962;2023-04-01T01:36:31;6.97;;;4.10;;
4748;SDS011;2388;53.582;9.962;2023-04-01T01:39:00;6.07;;;3.93;;
4748;SDS011;2388;53.582;9.962;2023-04-01T01:41:27;7.53;;;4.00;;
4748;SDS011;2388;53.582;9.962;2023-04-01T01:43:55;8.10;;;4.27;;
4748;SDS011;2388;53.582;9.962;2023-04-01T01:46:22;12.37;;;4.70;;
4748;SDS011;2388;53.582;9.962;2023-04-01T01:48:50;8.63;;;4.07;;
4748;SDS011;2388;53.582;9.962;2023-04-01T01:51:18;6.77;;;4.20;;
4748;SDS011;2388;53.582;9.962;2023-04-01T01:53:45;4.70;;;3.93;;
4748;SDS011;2388;53.582;9.962;2023-04-01T01:56:11;10.27;;;4.50;;
4748;SDS011;2388;53.582;9.962;2023-04-01T01:58:44;4.90;;;3.33;;
4748;SDS011;2388;53.582;9.962;2023-04-01T02:01:13;3.53;;;3.23;;
4748;SDS011;2388;53.582;9.962;2023-04-01T02:03:42;8.60;;;3.87;;
4748;SDS011;2388;53.582;9.962;2023-04-01T02:06:10;4.43;;;3.17;;
4748;SDS011;2388;53.582;9.962;2023-04-01T02:08:42;8.40;;;3.60;;
4748;SDS011;2388;53.582;9.962;2023-04-01T02:11:16;5.70;;;3.30;;
4748;SDS011;2388;53.582;9.962;2023-04-01T02:16:32;4.60;;;2.83;;
4748;SDS011;2388;53.582;9.962;2023-04-01T02:19:01;4.57;;;3.37;;
4748;SDS011;2388;53.582;9.962;2023-04-01T02:21:32;9.73;;;3.50;;
4748;SDS011;2388;53.582;9.962;2023-04-01T02:23:59;7.30;;;3.70;;
4748;SDS011;2388;53.582;9.962;2023-04-01T02:26:26;4.50;;;3.23;;
4748;SDS011;2388;53.582;9.962;2023-04-01T02:28:53;5.00;;;3.23;;
4748;SDS011;2388;53.582;9.962;2023-04-01T02:31:20;3.93;;;3.50;;
4748;SDS011;2388;53.582;9.962;2023-04-01T02:33:46;4.57;;;2.83;;
4748;SDS011;2388;53.582;9.962;2023-04-01T02:36:13;3.47;;;3.10;;
4748;SDS011;2388;53.582;9.962;2023-04-01T02:38:40;5.27;;;3.40;;
4748;SDS011;2388;53.582;9.962;2023-04-01T02:41:07;5.10;;;3.10;;
4748;SDS011;2388;53.582;9.962;2023-04-01T02:43:33;3.23;;;2.93;;
4748;SDS011;2388;53.582;9.962;2023-04-01T02:45:58;6.77;;;4.20;;
4748;SDS011;2388;53.582;9.962;2023-04-01T02:48:24;5.47;;;2.97;;
4748;SDS011;2388;53.582;9.962;2023-04-01T02:50:50;5.90;;;3.43;;
4748;SDS011;2388;53.582;9.962;2023-04-01T02:53:15;5.10;;;3.43;;
4748;SDS011;2388;53.582;9.962;2023-04-01T02:55:41;3.60;;;3.40;;
4748;SDS011;2388;53.582;9.962;2023-04-01T02:58:07;6.70;;;3.47;;
4748;SDS011;2388;53.582;9.962;2023-04-01T03:00:33;5.07;;;3.80;;
4748;SDS011;2388;53.582;9.962;2023-04-01T03:02:58;4.67;;;3.27;;
4748;SDS011;2388;53.582;9.962;2023-04-01T03:05:24;3.77;;;3.33;;
4748;SDS011;2388;53.582;9.962;2023-04-01T03:07:50;5.90;;;4.33;;
4748;SDS011;2388;53.582;9.962;2023-04-01T03:10:16;4.77;;;4.37;;
4748;SDS011;2388;53.582;9.962;2023-04-01T03:12:41;8.03;;;4.83;;
4748;SDS011;2388;53.582;9.962;2023-04-01T03:15:08;4.37;;;3.60;;
4748;SDS011;2388;53.582;9.962;2023-04-01T03:17:36;6.17;;;3.90;;
4748;SDS011;2388;53.582;9.962;2023-04-01T03:20:01;4.73;;;3.50;;
4748;SDS011;2388;53.582;9.962;2023-04-01T03:22:29;3.73;;;3.30;;
4748;SDS011;2388;53.582;9.962;2023-04-01T03:24:55;4.57;;;3.77;;
4748;SDS011;2388;53.582;9.962;2023-04-01T03:27:21;7.73;;;4.40;;
4748;SDS011;2388;53.582;9.962;2023-04-01T03:29:46;9.60;;;4.47;;
4748;SDS011;2388;53.582;9.962;2023-04-01T03:32:12;7.60;;;3.77;;
4748;SDS011;2388;53.582;9.962;2023-04-01T03:34:37;4.70;;;4.20;;
4748;SDS011;2388;53.582;9.962;2023-04-01T03:37:03;8.63;;;4.07;;
4748;SDS011;2388;53.582;9.962;2023-04-01T03:39:28;3.90;;;3.60;;
4748;SDS011;2388;53.582;9.962;2023-04-01T03:41:55;7.60;;;4.20;;
4748;SDS011;2388;53.582;9.962;2023-04-01T03:44:21;6.30;;;4.37;;
4748;SDS011;2388;53.582;9.962;2023-04-01T03:46:46;7.27;;;4.27;;
4748;SDS011;2388;53.582;9.962;2023-04-01T03:49:12;5.23;;;3.67;;
4748;SDS011;2388;53.582;9.962;2023-04-01T03:51:38;6.60;;;4.50;;
4748;SDS011;2388;53.582;9.962;2023-04-01T03:54:05;12.37;;;4.97;;
4748;SDS011;2388;53.582;9.962;2023-04-01T03:56:30;4.87;;;3.90;;
4748;SDS011;2388;53.582;9.962;2023-04-01T03:58:56;7.87;;;4.17;;
4748;SDS011;2388;53.582;9.962;2023-04-01T04:01:22;4.63;;;3.90;;
4748;SDS011;2388;53.582;9.962;2023-04-01T04:03:48;4.93;;;4.10;;
4748;SDS011;2388;53.582;9.962;2023-04-01T04:06:15;4.60;;;4.10;;
4748;SDS011;2388;53.582;9.962;2023-04-01T04:08:42;4.53;;;3.97;;
4748;SDS011;2388;53.582;9.962;2023-04-01T04:11:08;6.37;;;4.23;;
4748;SDS011;2388;53.582;9.962;2023-04-01T04:13:33;4.27;;;3.87;;
4748;SDS011;2388;53.582;9.962;2023-04-01T04:16:00;6.60;;;3.67;;
4748;SDS011;2388;53.582;9.962;2023-04-01T04:18:27;4.17;;;3.77;;
4748;SDS011;2388;53.582;9.962;2023-04-01T04:20:52;5.80;;;4.13;;
4748;SDS011;2388;53.582;9.962;2023-04-01T04:23:18;4.67;;;4.07;;
4748;SDS011;2388;53.582;9.962;2023-04-01T04:26:00;4.13;;;3.80;;
4748;SDS011;2388;53.582;9.962;2023-04-01T04:28:28;5.40;;;3.77;;
4748;SDS011;2388;53.582;9.962;2023-04-01T04:30:54;5.77;;;4.50;;
4748;SDS011;2388;53.582;9.962;2023-04-01T04:33:20;5.73;;;4.10;;
4748;SDS011;2388;53.582;9.962;2023-04-01T04:35:46;4.20;;;3.90;;
4748;SDS011;2388;53.582;9.962;2023-04-01T04:38:12;4.13;;;3.83;;
4748;SDS011;2388;53.582;9.962;2023-04-01T04:40:39;6.03;;;4.10;;
4748;SDS011;2388;53.582;9.962;2023-04-01T04:43:06;8.50;;;4.93;;
4748;SDS011;2388;53.582;9.962;2023-04-01T04:45:31;4.90;;;4.03;;
4748;SDS011;2388;53.582;9.962;2023-04-01T04:47:57;6.07;;;3.87;;
4748;SDS011;2388;53.582;9.962;2023-04-01T04:50:23;5.03;;;4.60;;
4748;SDS011;2388;53.582;9.962;2023-04-01T04:52:49;5.43;;;4.20;;
4748;SDS011;2388;53.582;9.962;2023-04-01T04:55:15;4.27;;;3.90;;
4748;SDS011;2388;53.582;9.962;2023-04-01T04:57:40;6.20;;;4.23;;
4748;SDS011;2388;53.582;9.962;2023-04-01T05:00:06;4.87;;;4.27;;
4748;SDS011;2388;53.582;9.962;2023-04-01T05:02:32;5.17;;;4.67;;
4748;SDS011;2388;53.582;9.962;2023-04-01T05:04:58;5.30;;;4.10;;
4748;SDS011;2388;53.582;9.962;2023-04-01T05:07:24;4.70;;;4.30;;
4748;SDS011;2388;53.582;9.962;2023-04-01T05:09:49;5.83;;;4.57;;
4748;SDS011;2388;53.582;9.962;2023-04-01T05:12:15;5.60;;;4.70;;
4748;SDS011;2388;53.582;9.962;2023-04-01T05:14:40;4.03;;;3.73;;
4748;SDS011;2388;53.582;9.962;2023-04-01T05:17:09;4.53;;;4.23;;
4748;SDS011;2388;53.582;9.962;2023-04-01T05:19:36;6.10;;;3.97;;
4748;SDS011;2388;53.582;9.962;2023-04-01T05:22:02;6.67;;;4.43;;
4748;SDS011;2388;53.582;9.962;2023-04-01T05:24:27;4.60;;;4.23;;
4748;SDS011;2388;53.582;9.962;2023-04-01T05:26:53;4.73;;;4.33;;
4748;SDS011;2388;53.582;9.962;2023-04-01T05:29:18;4.33;;;4.03;;
4748;SDS011;2388;53.582;9.962;2023-04-01T05:31:44;2.03;;;1.93;;
4748;SDS011;2388;53.582;9.962;2023-04-01T05:34:09;2.27;;;1.50;;
4748;SDS011;2388;53.582;9.962;2023-04-01T05:36:35;2.97;;;0.80;;
4748;SDS011;2388;53.582;9.962;2023-04-01T05:39:01;0.70;;;0.70;;
4748;SDS011;2388;53.582;9.962;2023-04-01T05:41:28;1.90;;;0.70;;
4748;SDS011;2388;53.582;9.962;2023-04-01T05:43:53;0.50;;;0.40;;
4748;SDS011;2388;53.582;9.962;2023-04-01T05:46:19;2.60;;;0.90;;
4748;SDS011;2388;53.582;9.962;2023-04-01T05:48:45;1.47;;;0.73;;
4748;SDS011;2388;53.582;9.962;2023-04-01T05:51:13;0.60;;;0.50;;
4748;SDS011;2388;53.582;9.962;2023-04-01T05:53:40;0.60;;;0.40;;
4748;SDS011;2388;53.582;9.962;2023-04-01T05:56:06;0.53;;;0.50;;
4748;SDS011;2388;53.582;9.962;2023-04-01T05:58:34;0.63;;;0.40;;
4748;SDS011;2388;53.582;9.962;2023-04-01T06:01:01;0.50;;;0.40;;
4748;SDS011;2388;53.582;9.962;2023-04-01T06:03:31;0.60;;;0.30;;
4748;SDS011;2388;53.582;9.962;2023-04-01T06:05:57;0.60;;;0.60;;
4748;SDS011;2388;53.582;9.962;2023-04-01T06:08:23;0.50;;;0.40;;
4748;SDS011;2388;53.582;9.962;2023-04-01T06:18:59;1.20;;;0.50;;
4748;SDS011;2388;53.582;9.962;2023-04-01T06:21:46;0.70;;;0.57;;
4748;SDS011;2388;53.582;9.962;2023-04-01T06:27:52;0.50;;;0.43;;
4748;SDS011;2388;53.582;9.962;2023-04-01T06:33:55;0.60;;;0.50;;
4748;SDS011;2388;53.582;9.962;2023-04-01T06:53:20;1.63;;;0.30;;
4748;SDS011;2388;53.582;9.962;2023-04-01T06:56:07;0.50;;;0.40;;
4748;SDS011;2388;53.582;9.962;2023-04-01T06:58:37;1.43;;;0.50;;
4748;SDS011;2388;53.582;9.962;2023-04-01T07:01:08;0.60;;;0.40;;
4748;SDS011;2388;53.582;9.962;2023-04-01T07:06:51;0.70;;;0.40;;
4748;SDS011;2388;53.582;9.962;2023-04-01T07:09:27;0.60;;;0.60;;
4748;SDS011;2388;53.582;9.962;2023-04-01T07:11:59;0.50;;;0.40;;
4748;SDS011;2388;53.582;9.962;2023-04-01T07:14:37;0.60;;;0.43;;
4748;SDS011;2388;53.582;9.962;2023-04-01T07:20:16;0.50;;;0.30;;
4748;SDS011;2388;53.582;9.962;2023-04-01T07:22:49;2.40;;;0.60;;
4748;SDS011;2388;53.582;9.962;2023-04-01T07:25:18;0.60;;;0.37;;
4748;SDS011;2388;53.582;9.962;2023-04-01T07:27:50;1.90;;;0.43;;
4748;SDS011;2388;53.582;9.962;2023-04-01T07:30:22;0.40;;;0.30;;
4748;SDS011;2388;53.582;9.962;2023-04-01T07:33:04;0.60;;;0.50;;
4748;SDS011;2388;53.582;9.962;2023-04-01T07:35:39;0.43;;;0.30;;
4748;SDS011;2388;53.582;9.962;2023-04-01T07:40:54;0.50;;;0.40;;
4748;SDS011;2388;53.582;9.962;2023-04-01T07:46:36;0.60;;;0.50;;
4748;SDS011;2388;53.582;9.962;2023-04-01T07:51:56;0.77;;;0.77;;
4748;SDS011;2388;53.582;9.962;2023-04-01T07:54:41;0.60;;;0.40;;
4748;SDS011;2388;53.582;9.962;2023-04-01T07:57:16;0.90;;;0.50;;
4748;SDS011;2388;53.582;9.962;2023-04-01T08:00:00;0.50;;;0.40;;
4748;SDS011;2388;53.582;9.962;2023-04-01T08:05:19;0.90;;;0.50;;
4748;SDS011;2388;53.582;9.962;2023-04-01T08:07:56;0.50;;;0.40;;
4748;SDS011;2388;53.582;9.962;2023-04-01T08:10:31;0.70;;;0.53;;
4748;SDS011;2388;53.582;9.962;2023-04-01T08:13:02;0.50;;;0.30;;
4748;SDS011;2388;53.582;9.962;2023-04-01T08:16:23;1.27;;;0.43;;
4748;SDS011;2388;53.582;9.962;2023-04-01T08:18:49;0.60;;;0.40;;
4748;SDS011;2388;53.582;9.962;2023-04-01T08:23:52;1.17;;;0.50;;
4748;SDS011;2388;53.582;9.962;2023-04-01T08:29:04;0.70;;;0.47;;
4748;SDS011;2388;53.582;9.962;2023-04-01T08:31:43;0.57;;;0.30;;
4748;SDS011;2388;53.582;9.962;2023-04-01T08:34:20;0.40;;;0.30;;
4748;SDS011;2388;53.582;9.962;2023-04-01T08:36:57;0.87;;;0.33;;
4748;SDS011;2388;53.582;9.962;2023-04-01T08:39:29;0.60;;;0.40;;
4748;SDS011;2388;53.582;9.962;2023-04-01T08:45:03;0.97;;;0.40;;
4748;SDS011;2388;53.582;9.962;2023-04-01T08:47:54;0.50;;;0.30;;
4748;SDS011;2388;53.582;9.962;2023-04-01T08:53:27;0.70;;;0.50;;
4748;SDS011;2388;53.582;9.962;2023-04-01T08:56:25;0.70;;;0.50;;
4748;SDS011;2388;53.582;9.962;2023-04-01T08:59:00;0.50;;;0.40;;
4748;SDS011;2388;53.582;9.962;2023-04-01T09:07:27;0.50;;;0.50;;
4748;SDS011;2388;53.582;9.962;2023-04-01T09:12:45;0.60;;;0.40;;
4748;SDS011;2388;53.582;9.962;2023-04-01T09:32:18;1.43;;;0.50;;
4748;SDS011;2388;53.582;9.962;2023-04-01T09:35:03;0.50;;;0.37;;
4748;SDS011;2388;53.582;9.962;2023-04-01T09:40:54;0.80;;;0.40;;
4748;SDS011;2388;53.582;9.962;2023-04-01T09:43:42;0.60;;;0.40;;
4748;SDS011;2388;53.582;9.962;2023-04-01T09:46:26;0.93;;;0.93;;
4748;SDS011;2388;53.582;9.962;2023-04-01T09:51:53;0.87;;;0.53;;
4748;SDS011;2388;53.582;9.962;2023-04-01T09:57:49;0.70;;;0.40;;
4748;SDS011;2388;53.582;9.962;2023-04-01T10:03:38;0.70;;;0.30;;
4748;SDS011;2388;53.582;9.962;2023-04-01T10:06:45;0.83;;;0.30;;
4748;SDS011;2388;53.582;9.962;2023-04-01T10:38:19;0.50;;;0.40;;
4748;SDS011;2388;53.582;9.962;2023-04-01T11:10:02;2.20;;;0.40;;
4748;SDS011;2388;53.582;9.962;2023-04-01T11:24:15;0.40;;;0.30;;
4748;SDS011;2388;53.582;9.962;2023-04-01T11:29:41;0.50;;;0.30;;
4748;SDS011;2388;53.582;9.962;2023-04-01T11:32:26;0.70;;;0.60;;
4748;SDS011;2388;53.582;9.962;2023-04-01T11:35:22;0.90;;;0.77;;
4748;SDS011;2388;53.582;9.962;2023-04-01T11:38:19;0.80;;;0.40;;
4748;SDS011;2388;53.582;9.962;2023-04-01T11:40:47;0.60;;;0.50;;
4748;SDS011;2388;53.582;9.962;2023-04-01T11:43:33;1.00;;;0.50;;
4748;SDS011;2388;53.582;9.962;2023-04-01T11:49:20;2.90;;;0.70;;
4748;SDS011;2388;53.582;9.962;2023-04-01T11:52:16;1.93;;;1.17;;
4748;SDS011;2388;53.582;9.962;2023-04-01T11:54:57;0.87;;;0.87;;
4748;SDS011;2388;53.582;9.962;2023-04-01T11:57:46;0.93;;;0.80;;
4748;SDS011;2388;53.582;9.962;2023-04-01T12:00:40;2.00;;;1.17;;
4748;SDS011;2388;53.582;9.962;2023-04-01T12:06:44;1.10;;;0.90;;
4748;SDS011;2388;53.582;9.962;2023-04-01T12:09:39;1.27;;;0.77;;
4748;SDS011;2388;53.582;9.962;2023-04-01T12:12:32;2.37;;;1.13;;
4748;SDS011;2388;53.582;9.962;2023-04-01T12:15:28;2.80;;;1.60;;
4748;SDS011;2388;53.582;9.962;2023-04-01T12:21:09;2.00;;;1.30;;
4748;SDS011;2388;53.582;9.962;2023-04-01T12:23:52;1.70;;;1.60;;
4748;SDS011;2388;53.582;9.962;2023-04-01T12:29:49;1.83;;;1.50;;
4748;SDS011;2388;53.582;9.962;2023-04-01T12:32:40;2.40;;;2.20;;
4748;SDS011;2388;53.582;9.962;2023-04-01T12:35:31;2.50;;;2.30;;
4748;SDS011;2388;53.582;9.962;2023-04-01T12:38:05;1.40;;;1.30;;
4748;SDS011;2388;53.582;9.962;2023-04-01T12:40:56;2.60;;;1.20;;
4748;SDS011;2388;53.582;9.962;2023-04-01T12:43:53;1.67;;;1.50;;
4748;SDS011;2388;53.582;9.962;2023-04-01T12:46:27;1.87;;;1.70;;
4748;SDS011;2388;53.582;9.962;2023-04-01T12:51:55;2.20;;;2.00;;
4748;SDS011;2388;53.582;9.962;2023-04-01T12:57:28;2.33;;;1.73;;
4748;SDS011;2388;53.582;9.962;2023-04-01T13:00:20;2.40;;;2.20;;
4748;SDS011;2388;53.582;9.962;2023-04-01T13:03:12;3.03;;;1.80;;
4748;SDS011;2388;53.582;9.962;2023-04-01T13:05:50;1.83;;;1.37;;
4748;SDS011;2388;53.582;9.962;2023-04-01T13:12:34;1.63;;;1.53;;
4748;SDS011;2388;53.582;9.962;2023-04-01T13:17:19;3.10;;;1.10;;
4748;SDS011;2388;53.582;9.962;2023-04-01T13:20:07;1.50;;;1.40;;
4748;SDS011;2388;53.582;9.962;2023-04-01T13:28:20;1.93;;;1.50;;
4748;SDS011;2388;53.582;9.962;2023-04-01T13:34:00;1.57;;;1.00;;
4748;SDS011;2388;53.582;9.962;2023-04-01T13:39:15;1.50;;;1.30;;
4748;SDS011;2388;53.582;9.962;2023-04-01T13:45:24;1.70;;;1.10;;
4748;SDS011;2388;53.582;9.962;2023-04-01T13:50:33;1.37;;;1.07;;
4748;SDS011;2388;53.582;9.962;2023-04-01T13:53:30;4.80;;;2.30;;
4748;SDS011;2388;53.582;9.962;2023-04-01T13:59:08;1.40;;;1.27;;
4748;SDS011;2388;53.582;9.962;2023-04-01T14:05:02;8.70;;;1.80;;
4748;SDS011;2388;53.582;9.962;2023-04-01T14:27:17;3.17;;;1.80;;
4748;SDS011;2388;53.582;9.962;2023-04-01T14:33:12;2.20;;;2.00;;
4748;SDS011;2388;53.582;9.962;2023-04-01T14:41:46;6.20;;;1.50;;
4748;SDS011;2388;53.582;9.962;2023-04-01T14:49:53;4.70;;;2.20;;
4748;SDS011;2388;53.582;9.962;2023-04-01T14:52:30;2.60;;;1.73;;
4748;SDS011;2388;53.582;9.962;2023-04-01T14:54:59;4.87;;;2.10;;
4748;SDS011;2388;53.582;9.962;2023-04-01T14:57:27;1.87;;;1.70;;
4748;SDS011;2388;53.582;9.962;2023-04-01T15:02:34;3.47;;;2.23;;
4748;SDS011;2388;53.582;9.962;2023-04-01T15:05:15;3.77;;;2.10;;
4748;SDS011;2388;53.582;9.962;2023-04-01T15:08:00;4.27;;;2.70;;
4748;SDS011;2388;53.582;9.962;2023-04-01T15:16:25;4.77;;;2.50;;
4748;SDS011;2388;53.582;9.962;2023-04-01T15:21:52;4.60;;;2.60;;
4748;SDS011;2388;53.582;9.962;2023-04-01T15:24:40;4.40;;;2.73;;
4748;SDS011;2388;53.582;9.962;2023-04-01T15:27:55;2.20;;;1.90;;
4748;SDS011;2388;53.582;9.962;2023-04-01T15:39:09;4.03;;;2.67;;
4748;SDS011;2388;53.582;9.962;2023-04-01T15:41:51;3.27;;;2.43;;
4748;SDS011;2388;53.582;9.962;2023-04-01T15:47:35;3.50;;;2.43;;
4748;SDS011;2388;53.582;9.962;2023-04-01T15:50:17;3.73;;;2.90;;
4748;SDS011;2388;53.582;9.962;2023-04-01T15:53:09;3.10;;;2.63;;
4748;SDS011;2388;53.582;9.962;2023-04-01T15:56:15;6.10;;;3.03;;
4748;SDS011;2388;53.582;9.962;2023-04-01T16:04:39;3.47;;;2.70;;
4748;SDS011;2388;53.582;9.962;2023-04-01T16:10:06;3.13;;;2.90;;
4748;SDS011;2388;53.582;9.962;2023-04-01T16:20:50;6.47;;;3.77;;
4748;SDS011;2388;53.582;9.962;2023-04-01T16:28:57;4.13;;;2.97;;
4748;SDS011;2388;53.582;9.962;2023-04-01T16:31:55;6.13;;;3.40;;
4748;SDS011;2388;53.582;9.962;2023-04-01T16:37:53;3.20;;;2.67;;
4748;SDS011;2388;53.582;9.962;2023-04-01T16:40:32;3.33;;;2.87;;
4748;SDS011;2388;53.582;9.962;2023-04-01T16:43:38;3.83;;;3.00;;
4748;SDS011;2388;53.582;9.962;2023-04-01T16:48:58;3.30;;;2.50;;
4748;SDS011;2388;53.582;9.962;2023-04-01T16:59:44;5.13;;;3.00;;
4748;SDS011;2388;53.582;9.962;2023-04-01T17:02:12;5.03;;;3.53;;
4748;SDS011;2388;53.582;9.962;2023-04-01T17:04:51;6.80;;;2.90;;
4748;SDS011;2388;53.582;9.962;2023-04-01T17:23:52;1.90;;;1.63;;
4748;SDS011;2388;53.582;9.962;2023-04-01T17:29:12;2.87;;;2.40;;
4748;SDS011;2388;53.582;9.962;2023-04-01T17:32:03;3.70;;;2.40;;
4748;SDS011;2388;53.582;9.962;2023-04-01T17:37:28;4.63;;;3.47;;
4748;SDS011;2388;53.582;9.962;2023-04-01T17:40:15;2.77;;;2.57;;
4748;SDS011;2388;53.582;9.962;2023-04-01T17:45:43;4.83;;;3.00;;
4748;SDS011;2388;53.582;9.962;2023-04-01T17:51:24;3.00;;;2.70;;
4748;SDS011;2388;53.582;9.962;2023-04-01T18:02:47;6.73;;;1.57;;
4748;SDS011;2388;53.582;9.962;2023-04-01T18:11:08;4.77;;;2.20;;
4748;SDS011;2388;53.582;9.962;2023-04-01T18:14:07;4.53;;;2.00;;
4748;SDS011;2388;53.582;9.962;2023-04-01T18:17:02;2.90;;;1.87;;
4748;SDS011;2388;53.582;9.962;2023-04-01T18:22:59;2.73;;;2.50;;
4748;SDS011;2388;53.582;9.962;2023-04-01T18:25:33;4.03;;;1.63;;
4748;SDS011;2388;53.582;9.962;2023-04-01T18:30:40;3.63;;;1.87;;
4748;SDS011;2388;53.582;9.962;2023-04-01T18:36:13;2.80;;;1.93;;
4748;SDS011;2388;53.582;9.962;2023-04-01T18:39:01;1.50;;;1.40;;
4748;SDS011;2388;53.582;9.962;2023-04-01T18:47:14;2.67;;;2.00;;
4748;SDS011;2388;53.582;9.962;2023-04-01T18:52:47;4.10;;;1.77;;
4748;SDS011;2388;53.582;9.962;2023-04-01T18:58:14;2.07;;;1.87;;
4748;SDS011;2388;53.582;9.962;2023-04-01T19:00:44;1.83;;;1.40;;
4748;SDS011;2388;53.582;9.962;2023-04-01T19:03:28;7.30;;;2.13;;
4748;SDS011;2388;53.582;9.962;2023-04-01T19:06:32;5.20;;;2.10;;
4748;SDS011;2388;53.582;9.962;2023-04-01T19:09:23;3.60;;;1.87;;
4748;SDS011;2388;53.582;9.962;2023-04-01T19:14:56;4.63;;;1.87;;
4748;SDS011;2388;53.582;9.962;2023-04-01T19:20:47;3.80;;;1.63;;
4748;SDS011;2388;53.582;9.962;2023-04-01T19:26:46;4.37;;;1.93;;
4748;SDS011;2388;53.582;9.962;2023-04-01T19:29:29;2.67;;;1.60;;
4748;SDS011;2388;53.582;9.962;2023-04-01T19:32:30;1.73;;;1.63;;
4748;SDS011;2388;53.582;9.962;2023-04-01T19:38:42;3.10;;;1.70;;
4748;SDS011;2388;53.582;9.962;2023-04-01T19:44:23;3.60;;;1.93;;
4748;SDS011;2388;53.582;9.962;2023-04-01T19:52:52;5.30;;;1.90;;
4748;SDS011;2388;53.582;9.962;2023-04-01T19:55:26;2.57;;;1.90;;
4748;SDS011;2388;53.582;9.962;2023-04-01T19:58:23;3.87;;;1.80;;
4748;SDS011;2388;53.582;9.962;2023-04-01T20:00:59;3.03;;;1.93;;
4748;SDS011;2388;53.582;9.962;2023-04-01T20:06:16;1.77;;;1.40;;
4748;SDS011;2388;53.582;9.962;2023-04-01T20:09:26;2.37;;;2.23;;
4748;SDS011;2388;53.582;9.962;2023-04-01T20:12:03;2.20;;;1.73;;
4748;SDS011;2388;53.582;9.962;2023-04-01T20:14:57;2.20;;;1.60;;
4748;SDS011;2388;53.582;9.962;2023-04-01T20:17:38;2.90;;;1.70;;
4748;SDS011;2388;53.582;9.962;2023-04-01T20:22:52;3.10;;;1.20;;
4748;SDS011;2388;53.582;9.962;2023-04-01T20:25:41;2.60;;;2.00;;
4748;SDS011;2388;53.582;9.962;2023-04-01T20:28:32;5.50;;;1.60;;
4748;SDS011;2388;53.582;9.962;2023-04-01T20:31:11;3.70;;;1.77;;
4748;SDS011;2388;53.582;9.962;2023-04-01T20:34:12;2.80;;;1.70;;
4748;SDS011;2388;53.582;9.962;2023-04-01T20:42:57;4.20;;;1.70;;
4748;SDS011;2388;53.582;9.962;2023-04-01T20:48:57;1.83;;;1.53;;
4748;SDS011;2388;53.582;9.962;2023-04-01T20:51:06;2.70;;;1.57;;
4748;SDS011;2388;53.582;9.962;2023-04-01T20:53:36;2.50;;;2.00;;
4748;SDS011;2388;53.582;9.962;2023-04-01T20:56:14;1.97;;;1.77;;
4748;SDS011;2388;53.582;9.962;2023-04-01T20:58:54;4.60;;;2.13;;
4748;SDS011;2388;53.582;9.962;2023-04-01T21:01:31;5.40;;;1.73;;
4748;SDS011;2388;53.582;9.962;2023-04-01T21:04:21;4.10;;;1.70;;
4748;SDS011;2388;53.582;9.962;2023-04-01T21:06:53;1.90;;;1.40;;
4748;SDS011;2388;53.582;9.962;2023-04-01T21:09:38;1.83;;;1.50;;
4748;SDS011;2388;53.582;9.962;2023-04-01T21:18:00;4.00;;;1.37;;
4748;SDS011;2388;53.582;9.962;2023-04-01T21:21:08;6.90;;;1.80;;
4748;SDS011;2388;53.582;9.962;2023-04-01T21:23:52;5.43;;;1.77;;
4748;SDS011;2388;53.582;9.962;2023-04-01T21:30:38;1.70;;;1.60;;
4748;SDS011;2388;53.582;9.962;2023-04-01T21:33:02;4.10;;;1.70;;
4748;SDS011;2388;53.582;9.962;2023-04-01T21:38:41;5.73;;;2.30;;
4748;SDS011;2388;53.582;9.962;2023-04-01T21:44:17;1.80;;;1.50;;
4748;SDS011;2388;53.582;9.962;2023-04-01T21:49:43;1.83;;;1.73;;
4748;SDS011;2388;53.582;9.962;2023-04-01T21:52:28;1.67;;;1.30;;
4748;SDS011;2388;53.582;9.962;2023-04-01T21:55:21;4.90;;;1.80;;
4748;SDS011;2388;53.582;9.962;2023-04-01T22:07:15;3.90;;;1.10;;
4748;SDS011;2388;53.582;9.962;2023-04-01T22:09:52;1.87;;;1.30;;
4748;SDS011;2388;53.582;9.962;2023-04-01T22:12:35;1.93;;;1.27;;
4748;SDS011;2388;53.582;9.962;2023-04-01T22:17:46;3.30;;;1.33;;
4748;SDS011;2388;53.582;9.962;2023-04-01T22:23:08;4.50;;;1.13;;
4748;SDS011;2388;53.582;9.962;2023-04-01T22:26:05;2.80;;;1.30;;
4748;SDS011;2388;53.582;9.962;2023-04-01T22:31:28;2.13;;;1.00;;
4748;SDS011;2388;53.582;9.962;2023-04-01T22:47:56;4.23;;;1.10;;
4748;SDS011;2388;53.582;9.962;2023-04-01T22:53:08;2.30;;;1.00;;
4748;SDS011;2388;53.582;9.962;2023-04-01T22:55:44;1.50;;;1.05;;
4748;SDS011;2388;53.582;9.962;2023-04-01T22:58:14;1.90;;;1.13;;
4748;SDS011;2388;53.582;9.962;2023-04-01T23:00:45;1.40;;;1.10;;
4748;SDS011;2388;53.582;9.962;2023-04-01T23:03:14;6.57;;;1.00;;
4748;SDS011;2388;53.582;9.962;2023-04-01T23:05:57;2.13;;;1.30;;
4748;SDS011;2388;53.582;9.962;2023-04-01T23:11:15;2.83;;;0.95;;
4748;SDS011;2388;53.582;9.962;2023-04-01T23:13:46;10.00;;;1.03;;
4748;SDS011;2388;53.582;9.962;2023-04-01T23:16:17;3.05;;;2.05;;
4748;SDS011;2388;53.582;9.962;2023-04-01T23:21:39;5.15;;;1.00;;
4748;SDS011;2388;53.582;9.962;2023-04-01T23:26:59;2.10;;;1.23;;
4748;SDS011;2388;53.582;9.962;2023-04-01T23:29:28;3.77;;;0.90;;
4748;SDS011;2388;53.582;9.962;2023-04-01T23:32:01;2.10;;;1.03;;
4748;SDS011;2388;53.582;9.962;2023-04-01T23:34:30;3.25;;;1.15;;
4748;SDS011;2388;53.582;9.962;2023-04-01T23:37:04;2.63;;;1.35;;
4748;SDS011;2388;53.582;9.962;2023-04-01T23:39:35;1.42;;;0.70;;
4748;SDS011;2388;53.582;9.962;2023-04-01T23:42:13;2.92;;;1.33;;
4748;SDS011;2388;53.582;9.962;2023-04-01T23:44:48;3.22;;;1.20;;
4748;SDS011;2388;53.582;9.962;2023-04-01T23:47:21;2.25;;;1.08;;
4748;SDS011;2388;53.582;9.962;2023-04-01T23:49:52;2.38;;;0.55;;
4748;SDS011;2388;53.582;9.962;2023-04-01T23:52:25;1.65;;;0.98;;
4748;SDS011;2388;53.582;9.962;2023-04-01T23:54:54;2.42;;;0.63;;
4748;SDS011;2388;53.582;9.962;2023-04-01T23:57:37;1.65;;;0.60;;
